createdAt,value
2019-05-26T00:04:52.982Z,3.02
2019-05-26T00:09:59.732Z,3.05
2019-05-26T00:15:06.644Z,3.40
2019-05-26T00:20:12.561Z,3.50
2019-05-26T00:25:18.346Z,3.00
2019-05-26T00:30:25.161Z,2.60
2019-05-26T00:35:31.274Z,3.17
2019-05-26T00:40:37.374Z,2.70
2019-05-26T00:45:43.693Z,2.90
2019-05-26T00:50:50.355Z,2.92
2019-05-26T00:55:56.172Z,2.67
2019-05-26T01:01:01.794Z,2.65
2019-05-26T01:06:07.982Z,3.25
2019-05-26T01:11:14.676Z,2.20
2019-05-26T01:16:20.585Z,3.42
2019-05-26T01:21:27.602Z,2.50
2019-05-26T01:26:34.064Z,2.60
2019-05-26T01:31:41.274Z,2.20
2019-05-26T01:36:48.182Z,2.90
2019-05-26T01:41:54.335Z,2.47
2019-05-26T01:47:02.441Z,2.37
2019-05-26T01:52:09.078Z,2.50
2019-05-26T01:57:14.952Z,2.40
2019-05-26T02:02:20.906Z,2.52
2019-05-26T02:07:26.686Z,2.80
2019-05-26T02:12:32.551Z,2.47
2019-05-26T02:17:39.471Z,2.42
2019-05-26T02:22:47.633Z,2.15
2019-05-26T02:27:55.173Z,2.50
2019-05-26T02:33:02.285Z,2.15
2019-05-26T02:38:08.270Z,1.95
2019-05-26T02:43:14.654Z,2.40
2019-05-26T02:48:20.193Z,2.62
2019-05-26T02:53:25.501Z,2.33
2019-05-26T02:58:31.583Z,1.98
2019-05-26T03:03:37.765Z,2.12
2019-05-26T03:08:44.585Z,2.33
2019-05-26T03:13:50.512Z,2.47
2019-05-26T03:18:57.444Z,2.33
2019-05-26T03:24:04.673Z,2.02
2019-05-26T03:29:10.342Z,2.30
2019-05-26T03:34:16.898Z,1.90
2019-05-26T03:39:42.611Z,2.05
2019-05-26T03:44:31.173Z,2.00
2019-05-26T03:49:37.802Z,2.27
2019-05-26T03:54:43.753Z,2.00
2019-05-26T03:59:49.972Z,1.85
2019-05-26T04:04:56.459Z,1.90
2019-05-26T04:10:05.390Z,1.92
2019-05-26T04:15:09.683Z,2.33
2019-05-26T04:20:15.653Z,1.90
2019-05-26T04:25:21.462Z,1.85
2019-05-26T04:30:27.866Z,2.17
2019-05-26T04:35:33.953Z,2.10
2019-05-26T04:40:40.317Z,1.60
2019-05-26T04:45:46.124Z,1.80
2019-05-26T04:50:52.163Z,1.70
2019-05-26T04:55:57.855Z,2.05
2019-05-26T05:01:03.604Z,1.92
2019-05-26T05:06:09.324Z,1.77
2019-05-26T05:11:15.784Z,2.22
2019-05-26T05:16:22.147Z,1.80
2019-05-26T05:21:28.026Z,1.95
2019-05-26T05:26:34.433Z,1.90
2019-05-26T05:31:40.695Z,1.90
2019-05-26T05:36:46.562Z,1.92
2019-05-26T05:41:52.353Z,1.98
2019-05-26T05:46:59.042Z,1.60
2019-05-26T05:52:05.212Z,1.92
2019-05-26T05:57:11.632Z,1.80
2019-05-26T06:02:18.222Z,1.67
2019-05-26T06:07:25.404Z,1.70
2019-05-26T06:12:31.116Z,2.15
2019-05-26T06:17:37.101Z,1.70
2019-05-26T06:22:43.095Z,2.02
2019-05-26T06:27:49.215Z,1.87
2019-05-26T06:32:55.808Z,1.98
2019-05-26T06:38:01.624Z,1.62
2019-05-26T06:43:07.902Z,1.87
2019-05-26T06:48:13.692Z,2.22
2019-05-26T06:53:19.872Z,2.20
2019-05-26T06:58:26.162Z,5.05
2019-05-26T07:03:32.402Z,2.50
2019-05-26T07:08:39.352Z,2.27
2019-05-26T07:13:45.256Z,2.22
2019-05-26T07:18:51.610Z,2.00
2019-05-26T07:23:57.801Z,2.22
2019-05-26T07:29:03.816Z,2.17
2019-05-26T07:34:09.962Z,2.08
2019-05-26T07:39:16.383Z,2.00
2019-05-26T07:44:22.598Z,2.02
2019-05-26T07:49:28.375Z,2.40
2019-05-26T07:54:34.674Z,2.47
2019-05-26T07:59:41.934Z,2.10
2019-05-26T08:04:48.212Z,2.40
2019-05-26T08:09:54.011Z,2.30
2019-05-26T08:15:00.080Z,4.72
2019-05-26T08:20:06.671Z,6.53
2019-05-26T08:25:14.103Z,6.25
2019-05-26T08:30:20.593Z,5.40
2019-05-26T08:35:27.854Z,4.15
2019-05-26T08:40:34.483Z,3.45
2019-05-26T08:45:40.992Z,4.03
2019-05-26T08:50:47.263Z,3.58
2019-05-26T08:55:53.202Z,3.25
2019-05-26T09:00:59.414Z,3.05
2019-05-26T09:06:05.113Z,2.80
2019-05-26T09:11:11.393Z,2.90
2019-05-26T09:16:17.522Z,2.50
2019-05-26T09:21:25.259Z,3.00
2019-05-26T09:26:31.912Z,3.17
2019-05-26T09:31:38.664Z,2.60
2019-05-26T09:36:44.933Z,2.65
2019-05-26T09:41:51.382Z,2.52
2019-05-26T09:46:57.953Z,2.37
2019-05-26T09:52:04.234Z,2.47
2019-05-26T09:57:10.612Z,2.33
2019-05-26T10:02:17.065Z,2.52
2019-05-26T10:07:23.352Z,2.33
2019-05-26T10:12:29.533Z,2.25
2019-05-26T10:17:35.782Z,2.45
2019-05-26T10:22:42.193Z,2.20
2019-05-26T10:27:48.593Z,2.10
2019-05-26T10:32:55.447Z,1.92
2019-05-26T10:38:01.462Z,2.05
2019-05-26T10:43:07.369Z,2.00
2019-05-26T10:48:13.153Z,2.00
2019-05-26T10:53:19.463Z,2.15
2019-05-26T10:58:25.752Z,2.05
2019-05-26T11:03:31.924Z,2.20
2019-05-26T11:08:37.634Z,1.80
2019-05-26T11:13:44.303Z,2.15
2019-05-26T11:18:50.073Z,2.22
2019-05-26T11:23:55.675Z,1.80
2019-05-26T11:29:02.303Z,2.00
2019-05-26T11:34:09.223Z,2.20
2019-05-26T11:39:15.723Z,1.90
2019-05-26T11:44:22.222Z,1.90
2019-05-26T11:49:28.483Z,2.02
2019-05-26T11:54:34.935Z,1.98
2019-05-26T11:59:41.222Z,1.80
2019-05-26T12:04:47.853Z,1.75
2019-05-26T12:09:53.593Z,1.65
2019-05-26T12:14:59.372Z,1.90
2019-05-26T12:20:05.870Z,1.80
2019-05-26T12:25:11.974Z,1.70
2019-05-26T12:30:18.294Z,1.80
2019-05-26T12:35:28.254Z,1.82
2019-05-26T12:40:34.134Z,1.85
2019-05-26T12:45:40.706Z,1.80
2019-05-26T12:50:46.944Z,2.00
2019-05-26T12:55:53.753Z,1.52
2019-05-26T13:00:59.543Z,1.67
2019-05-26T13:06:07.423Z,1.85
2019-05-26T13:11:13.794Z,1.80
2019-05-26T13:16:19.472Z,1.72
2019-05-26T13:21:26.002Z,1.50
2019-05-26T13:26:32.062Z,1.67
2019-05-26T13:31:37.992Z,1.62
2019-05-26T13:36:43.822Z,1.70
2019-05-26T13:41:49.703Z,1.70
2019-05-26T13:46:56.003Z,1.70
2019-05-26T13:52:02.046Z,1.70
2019-05-26T13:57:08.493Z,1.60
2019-05-26T14:02:14.694Z,1.80
2019-05-26T14:07:21.233Z,1.40
2019-05-26T14:12:27.233Z,1.52
2019-05-26T14:17:53.334Z,1.62
2019-05-26T14:22:59.600Z,1.70
2019-05-26T14:28:06.253Z,1.70
2019-05-26T14:33:12.184Z,1.47
2019-05-26T14:38:18.733Z,1.80
2019-05-26T14:43:24.982Z,1.70
2019-05-26T14:53:42.372Z,1.70
2019-05-26T14:58:48.503Z,1.60
2019-05-26T15:03:54.483Z,1.55
2019-05-26T15:09:00.579Z,1.80
2019-05-26T15:14:07.702Z,2.02
2019-05-26T15:19:14.282Z,2.00
2019-05-26T15:24:20.485Z,2.17
2019-05-26T15:29:27.408Z,2.45
2019-05-26T15:34:34.079Z,1.90
2019-05-26T15:39:40.494Z,2.52
2019-05-26T15:44:47.264Z,2.10
2019-05-26T15:49:53.984Z,2.10
2019-05-26T15:54:59.964Z,2.12
2019-05-26T16:00:06.807Z,2.40
2019-05-26T16:05:12.943Z,2.10
2019-05-26T16:10:19.742Z,2.42
2019-05-26T16:15:27.104Z,2.02
2019-05-26T16:20:33.801Z,2.15
2019-05-26T16:25:39.913Z,2.10
2019-05-26T16:30:46.472Z,2.20
2019-05-26T16:35:55.604Z,2.95
2019-05-26T16:41:01.903Z,2.75
2019-05-26T16:46:08.751Z,2.20
2019-05-26T16:51:16.482Z,2.87
2019-05-26T16:56:22.823Z,2.40
2019-05-26T17:01:29.732Z,2.47
2019-05-26T17:06:36.037Z,3.20
2019-05-26T17:11:42.553Z,2.90
2019-05-26T17:16:49.052Z,2.85
2019-05-26T17:21:55.473Z,2.87
2019-05-26T17:27:01.383Z,2.70
2019-05-26T17:32:07.153Z,2.60
2019-05-26T17:37:14.103Z,2.87
2019-05-26T17:42:20.522Z,2.67
2019-05-26T17:47:30.288Z,2.80
2019-05-26T17:52:34.813Z,2.98
2019-05-26T17:57:41.077Z,2.92
2019-05-26T18:02:46.784Z,3.37
2019-05-26T18:07:52.492Z,3.45
2019-05-26T18:12:58.443Z,3.55
2019-05-26T18:18:04.514Z,2.95
2019-05-26T18:23:11.238Z,3.55
2019-05-26T18:28:18.372Z,2.92
2019-05-26T18:33:24.806Z,2.77
2019-05-26T18:38:31.483Z,3.27
2019-05-26T18:43:37.943Z,3.20
2019-05-26T18:48:44.154Z,2.75
2019-05-26T18:53:51.438Z,2.83
2019-05-26T18:58:58.125Z,2.70
2019-05-26T19:04:04.303Z,2.67
2019-05-26T19:09:11.003Z,2.70
2019-05-26T19:14:17.544Z,3.30
2019-05-26T19:19:24.223Z,3.35
2019-05-26T19:24:30.341Z,2.80
2019-05-26T19:29:36.422Z,3.52
2019-05-26T19:34:43.222Z,2.85
2019-05-26T19:39:49.253Z,3.08
2019-05-26T19:44:55.307Z,2.50
2019-05-26T19:50:01.659Z,3.02
2019-05-26T19:55:08.155Z,3.25
2019-05-26T20:00:17.374Z,3.55
2019-05-26T20:05:23.933Z,2.77
2019-05-26T20:10:30.252Z,3.12
2019-05-26T20:15:36.282Z,3.00
2019-05-26T20:21:01.722Z,4.05
2019-05-26T20:26:08.302Z,2.72
2019-05-26T20:31:16.187Z,3.12
2019-05-26T20:36:23.270Z,2.90
2019-05-26T20:41:29.391Z,2.70
2019-05-26T20:46:36.064Z,3.00
2019-05-26T20:51:42.370Z,2.92
2019-05-26T20:56:49.950Z,2.47
2019-05-26T21:01:56.402Z,2.77
2019-05-26T21:07:02.904Z,2.35
2019-05-26T21:12:10.590Z,2.62
2019-05-26T21:17:20.033Z,2.92
2019-05-26T21:22:27.245Z,2.77
2019-05-26T21:27:34.304Z,2.75
2019-05-26T21:32:40.592Z,2.77
2019-05-26T21:37:47.494Z,2.70
2019-05-26T21:42:53.603Z,2.72
2019-05-26T21:48:00.284Z,2.45
2019-05-26T21:53:06.655Z,2.47
2019-05-26T21:58:12.663Z,2.30
2019-05-26T22:03:18.983Z,2.60
2019-05-26T22:08:24.932Z,2.77
2019-05-26T22:13:31.361Z,2.98
2019-05-26T22:18:37.953Z,2.50
2019-05-26T22:23:44.542Z,2.67
2019-05-26T22:28:50.359Z,2.45
2019-05-26T22:33:56.492Z,2.27
2019-05-26T22:39:02.065Z,2.40
2019-05-26T22:44:08.723Z,2.52
2019-05-26T22:49:14.843Z,2.35
2019-05-26T22:54:21.172Z,2.40
2019-05-26T22:59:27.852Z,2.42
2019-05-26T23:04:33.722Z,2.35
2019-05-26T23:09:40.344Z,2.77
2019-05-26T23:14:46.842Z,2.60
2019-05-26T23:19:52.662Z,2.37
2019-05-26T23:24:58.933Z,2.33
2019-05-26T23:30:04.713Z,2.33
2019-05-26T23:35:10.723Z,2.02
2019-05-26T23:40:18.081Z,2.30
2019-05-26T23:45:23.894Z,2.65
2019-05-26T23:50:29.353Z,2.22
2019-05-26T23:55:35.683Z,2.00
